UAE811 OMDB-OERK
Flight info
| Callsign | UAE811 |
|---|---|
| Flight time | 1h 18m |
| Altitude | 32000 |
| Route | SENPA2F SENPA DCT ALPOB L768 ULADA T136 OTISU DCT GETOT DCT |
| Aircraft | B77W/H-SDE1E2E3FGHIJ2J3J4J5M1RWXY/LB1D1 |
Departure
| Time | 2026-04-21 20:05 |
|---|---|
| Airport | Dubai International Airport (OMDB) |
Arrival
| Time | 2026-04-21 21:24 |
|---|---|
| Airport | King Khalid International Airport (OERK) |
| Time | Latitude | Longitude | Altitude | Speed | Heading |
|---|---|---|---|---|---|
| 2026-04-21 19:20 | 25.25288 | 55.35571 | 31 ft | 0 kts | 211° |
| 2026-04-21 19:51 | 25.25306 | 55.35583 | 34 ft | 4 kts | 211° |
| 2026-04-21 19:51 | 25.25330 | 55.35599 | 30 ft | 4 kts | 211° |
| 2026-04-21 19:52 | 25.25352 | 55.35614 | 32 ft | 4 kts | 223° |
| 2026-04-21 19:52 | 25.25364 | 55.35636 | 32 ft | 4 kts | 279° |
| 2026-04-21 19:52 | 25.25356 | 55.35656 | 32 ft | 4 kts | 302° |
| 2026-04-21 19:52 | 25.25343 | 55.35680 | 32 ft | 2 kts | 302° |
| 2026-04-21 19:58 | 25.25387 | 55.35601 | 28 ft | 22 kts | 301° |
| 2026-04-21 19:58 | 25.25469 | 55.35454 | 28 ft | 22 kts | 303° |
| 2026-04-21 19:58 | 25.25552 | 55.35308 | 31 ft | 22 kts | 300° |
| 2026-04-21 19:59 | 25.25624 | 55.35181 | 31 ft | 15 kts | 307° |
| 2026-04-21 19:59 | 25.25719 | 55.35184 | 28 ft | 15 kts | 23° |
| 2026-04-21 19:59 | 25.25808 | 55.35240 | 30 ft | 15 kts | 32° |
| 2026-04-21 19:59 | 25.25896 | 55.35299 | 30 ft | 15 kts | 31° |
| 2026-04-21 20:00 | 25.25977 | 55.35367 | 24 ft | 15 kts | 50° |
| 2026-04-21 20:00 | 25.26003 | 55.35487 | 26 ft | 18 kts | 95° |
| 2026-04-21 20:00 | 25.25941 | 55.35637 | 26 ft | 26 kts | 121° |
| 2026-04-21 20:00 | 25.25841 | 55.35818 | 27 ft | 28 kts | 122° |
| 2026-04-21 20:01 | 25.25739 | 55.35999 | 27 ft | 28 kts | 122° |
| 2026-04-21 20:01 | 25.25637 | 55.36181 | 28 ft | 28 kts | 122° |
| 2026-04-21 20:01 | 25.25534 | 55.36363 | 27 ft | 28 kts | 121° |
| 2026-04-21 20:01 | 25.25434 | 55.36545 | 27 ft | 28 kts | 122° |
| 2026-04-21 20:02 | 25.25365 | 55.36665 | 26 ft | 28 kts | 122° |
| 2026-04-21 20:02 | 25.25228 | 55.36908 | 27 ft | 28 kts | 122° |
| 2026-04-21 20:02 | 25.25126 | 55.37089 | 28 ft | 28 kts | 121° |
| 2026-04-21 20:02 | 25.25026 | 55.37272 | 28 ft | 28 kts | 121° |
| 2026-04-21 20:03 | 25.24922 | 55.37452 | 28 ft | 28 kts | 122° |
| 2026-04-21 20:03 | 25.24820 | 55.37633 | 28 ft | 28 kts | 122° |
| 2026-04-21 20:03 | 25.24728 | 55.37797 | 27 ft | 16 kts | 120° |
| 2026-04-21 20:03 | 25.24737 | 55.37876 | 27 ft | 6 kts | 50° |
| 2026-04-21 20:04 | 25.24771 | 55.37909 | 27 ft | 7 kts | 36° |
| 2026-04-21 20:04 | 25.24809 | 55.37936 | 29 ft | 7 kts | 31° |
| 2026-04-21 20:04 | 25.24851 | 55.37945 | 30 ft | 7 kts | 333° |
| 2026-04-21 20:04 | 25.24879 | 55.37899 | 30 ft | 12 kts | 301° |
| 2026-04-21 20:05 | 25.25108 | 55.37484 | 32 ft | 122 kts | 301° |
| 2026-04-21 20:05 | 25.25753 | 55.36324 | 200 ft | 219 kts | 301° |
| 2026-04-21 20:05 | 25.26531 | 55.34896 | 1715 ft | 217 kts | 303° |
| 2026-04-21 20:05 | 25.27349 | 55.33426 | 2288 ft | 235 kts | 303° |
| 2026-04-21 20:06 | 25.28263 | 55.31798 | 2555 ft | 261 kts | 303° |
| 2026-04-21 20:06 | 25.29229 | 55.30044 | 3166 ft | 270 kts | 299° |
| 2026-04-21 20:06 | 25.29751 | 55.28046 | 3778 ft | 275 kts | 274° |
| 2026-04-21 20:06 | 25.29857 | 55.25917 | 4479 ft | 276 kts | 273° |
| 2026-04-21 20:07 | 25.30014 | 55.23821 | 5233 ft | 271 kts | 273° |
| 2026-04-21 20:07 | 25.30173 | 55.21739 | 6058 ft | 275 kts | 274° |
| 2026-04-21 20:07 | 25.30282 | 55.20338 | 6603 ft | 276 kts | 274° |
| 2026-04-21 20:07 | 25.30441 | 55.17514 | 7742 ft | 275 kts | 266° |
| 2026-04-21 20:08 | 25.30264 | 55.15428 | 8674 ft | 269 kts | 262° |
| 2026-04-21 20:08 | 25.30195 | 55.13375 | 9627 ft | 266 kts | 271° |
| 2026-04-21 20:08 | 25.30440 | 55.11362 | 10441 ft | 266 kts | 279° |
| 2026-04-21 20:08 | 25.30812 | 55.09587 | 10728 ft | 282 kts | 278° |
| 2026-04-21 20:09 | 25.30898 | 55.07331 | 10844 ft | 309 kts | 263° |
| 2026-04-21 20:09 | 25.30521 | 55.04909 | 10962 ft | 330 kts | 261° |
| 2026-04-21 20:09 | 25.30501 | 55.02280 | 11293 ft | 351 kts | 273° |
| 2026-04-21 20:09 | 25.30763 | 54.99567 | 12003 ft | 361 kts | 275° |
| 2026-04-21 20:10 | 25.31056 | 54.96786 | 12900 ft | 366 kts | 275° |
| 2026-04-21 20:10 | 25.31309 | 54.93994 | 13861 ft | 368 kts | 274° |
| 2026-04-21 20:10 | 25.31452 | 54.92108 | 14438 ft | 371 kts | 273° |
| 2026-04-21 20:10 | 25.31692 | 54.88293 | 14811 ft | 375 kts | 272° |
| 2026-04-21 20:11 | 25.31822 | 54.85419 | 14801 ft | 374 kts | 271° |
| 2026-04-21 20:11 | 25.31915 | 54.82552 | 14802 ft | 372 kts | 271° |
| 2026-04-21 20:11 | 25.32003 | 54.79695 | 14808 ft | 373 kts | 271° |
| 2026-04-21 20:11 | 25.32117 | 54.76825 | 15574 ft | 373 kts | 272° |
| 2026-04-21 20:12 | 25.32212 | 54.74947 | 16368 ft | 369 kts | 273° |
| 2026-04-21 20:12 | 25.32373 | 54.72137 | 17613 ft | 363 kts | 274° |
| 2026-04-21 20:12 | 25.32536 | 54.69335 | 18731 ft | 358 kts | 273° |
| 2026-04-21 20:12 | 25.32678 | 54.66605 | 19647 ft | 355 kts | 272° |
| 2026-04-21 20:13 | 25.32799 | 54.63921 | 20506 ft | 354 kts | 272° |
| 2026-04-21 20:13 | 25.32912 | 54.61207 | 21320 ft | 353 kts | 272° |
| 2026-04-21 20:13 | 25.33021 | 54.58492 | 22135 ft | 352 kts | 272° |
| 2026-04-21 20:13 | 25.33133 | 54.55799 | 22963 ft | 351 kts | 274° |
| 2026-04-21 20:14 | 25.33494 | 54.53137 | 23711 ft | 350 kts | 282° |
| 2026-04-21 20:14 | 25.34188 | 54.50569 | 24340 ft | 349 kts | 289° |
| 2026-04-21 20:14 | 25.34872 | 54.48564 | 24596 ft | 357 kts | 287° |
| 2026-04-21 20:14 | 25.35577 | 54.45854 | 24720 ft | 377 kts | 283° |
| 2026-04-21 20:15 | 25.36215 | 54.42970 | 24844 ft | 396 kts | 282° |
| 2026-04-21 20:15 | 25.36874 | 54.39938 | 24968 ft | 414 kts | 282° |
| 2026-04-21 20:15 | 25.37580 | 54.36796 | 25233 ft | 426 kts | 283° |
| 2026-04-21 20:15 | 25.38327 | 54.33596 | 25627 ft | 434 kts | 283° |
| 2026-04-21 20:16 | 25.39109 | 54.30346 | 26159 ft | 438 kts | 284° |
| 2026-04-21 20:16 | 25.39906 | 54.27093 | 26767 ft | 439 kts | 284° |
| 2026-04-21 20:16 | 25.40716 | 54.23822 | 27347 ft | 442 kts | 284° |
| 2026-04-21 20:16 | 25.41532 | 54.20536 | 27910 ft | 444 kts | 284° |
| 2026-04-21 20:17 | 25.42349 | 54.17255 | 28625 ft | 443 kts | 284° |
| 2026-04-21 20:17 | 25.43162 | 54.13986 | 29483 ft | 438 kts | 284° |
| 2026-04-21 20:17 | 25.43961 | 54.10763 | 30376 ft | 430 kts | 284° |
| 2026-04-21 20:17 | 25.44738 | 54.07615 | 31281 ft | 419 kts | 284° |
| 2026-04-21 20:18 | 25.45498 | 54.04520 | 31801 ft | 415 kts | 284° |
| 2026-04-21 20:18 | 25.46261 | 54.01397 | 31805 ft | 427 kts | 284° |
| 2026-04-21 20:18 | 25.47044 | 53.98187 | 31821 ft | 436 kts | 284° |
| 2026-04-21 20:19 | 25.48623 | 53.91734 | 31807 ft | 431 kts | 284° |
| 2026-04-21 20:19 | 25.50196 | 53.85359 | 31810 ft | 429 kts | 284° |
| 2026-04-21 20:20 | 25.51772 | 53.78961 | 31822 ft | 432 kts | 284° |
| 2026-04-21 20:20 | 25.53348 | 53.72541 | 31815 ft | 431 kts | 284° |
| 2026-04-21 20:21 | 25.54911 | 53.66143 | 31830 ft | 430 kts | 284° |
| 2026-04-21 20:21 | 25.56796 | 53.59861 | 31817 ft | 431 kts | 291° |
| 2026-04-21 20:22 | 25.59150 | 53.53759 | 31818 ft | 430 kts | 291° |
| 2026-04-21 20:22 | 25.62636 | 53.44602 | 31820 ft | 430 kts | 291° |
| 2026-04-21 20:23 | 25.64944 | 53.38484 | 31819 ft | 430 kts | 291° |
| 2026-04-21 20:23 | 25.67250 | 53.32357 | 31817 ft | 431 kts | 291° |
| 2026-04-21 20:24 | 25.69553 | 53.26228 | 31832 ft | 431 kts | 291° |
| 2026-04-21 20:24 | 25.71856 | 53.20088 | 31819 ft | 431 kts | 291° |
| 2026-04-21 20:25 | 25.74152 | 53.13959 | 31824 ft | 430 kts | 291° |
| 2026-04-21 20:25 | 25.76445 | 53.07831 | 31837 ft | 434 kts | 291° |
| 2026-04-21 20:26 | 25.77615 | 53.04696 | 31836 ft | 445 kts | 291° |
| 2026-04-21 20:26 | 25.78812 | 53.01486 | 31838 ft | 455 kts | 291° |
| 2026-04-21 20:26 | 25.81270 | 52.94893 | 31836 ft | 467 kts | 291° |
| 2026-04-21 20:27 | 25.83747 | 52.88245 | 31822 ft | 465 kts | 291° |
| 2026-04-21 20:27 | 25.86214 | 52.81612 | 31829 ft | 465 kts | 291° |
| 2026-04-21 20:28 | 25.88676 | 52.74979 | 31840 ft | 464 kts | 291° |
| 2026-04-21 20:28 | 25.91130 | 52.68357 | 31833 ft | 464 kts | 291° |
| 2026-04-21 20:29 | 25.93581 | 52.61729 | 31835 ft | 464 kts | 291° |
| 2026-04-21 20:29 | 25.95844 | 52.55572 | 31835 ft | 463 kts | 290° |
| 2026-04-21 20:30 | 25.97556 | 52.48686 | 31852 ft | 462 kts | 280° |
| 2026-04-21 20:30 | 25.98356 | 52.41617 | 31846 ft | 461 kts | 277° |
| 2026-04-21 20:31 | 25.99074 | 52.34543 | 31852 ft | 460 kts | 277° |
| 2026-04-21 20:31 | 25.99806 | 52.27475 | 31852 ft | 460 kts | 277° |
| 2026-04-21 20:32 | 26.00546 | 52.20416 | 31854 ft | 459 kts | 277° |
| 2026-04-21 20:32 | 26.01279 | 52.13420 | 31857 ft | 459 kts | 277° |
| 2026-04-21 20:33 | 26.02014 | 52.06368 | 31863 ft | 459 kts | 277° |
| 2026-04-21 20:33 | 26.02741 | 51.99348 | 31727 ft | 455 kts | 277° |
| 2026-04-21 20:34 | 26.03103 | 51.95846 | 31396 ft | 457 kts | 277° |
| 2026-04-21 20:34 | 26.03466 | 51.92330 | 30996 ft | 459 kts | 276° |
| 2026-04-21 20:34 | 26.03829 | 51.88796 | 30529 ft | 463 kts | 277° |
| 2026-04-21 20:34 | 26.04194 | 51.85226 | 30108 ft | 466 kts | 277° |
| 2026-04-21 20:35 | 26.04562 | 51.81630 | 29957 ft | 470 kts | 276° |
| 2026-04-21 20:35 | 26.04931 | 51.78018 | 29859 ft | 468 kts | 276° |
| 2026-04-21 20:35 | 26.05658 | 51.70864 | 29854 ft | 466 kts | 276° |
| 2026-04-21 20:36 | 26.06384 | 51.63685 | 29855 ft | 467 kts | 276° |
| 2026-04-21 20:36 | 26.07107 | 51.56495 | 29845 ft | 468 kts | 276° |
| 2026-04-21 20:37 | 26.07830 | 51.49276 | 29854 ft | 470 kts | 276° |
| 2026-04-21 20:37 | 26.08549 | 51.42046 | 29846 ft | 471 kts | 276° |
| 2026-04-21 20:38 | 26.09267 | 51.34804 | 29860 ft | 470 kts | 276° |
| 2026-04-21 20:38 | 26.09979 | 51.27587 | 29842 ft | 469 kts | 276° |
| 2026-04-21 20:39 | 26.10685 | 51.20386 | 29844 ft | 468 kts | 276° |
| 2026-04-21 20:39 | 26.11386 | 51.13195 | 29848 ft | 468 kts | 275° |
| 2026-04-21 20:40 | 26.12085 | 51.05988 | 29839 ft | 468 kts | 275° |
| 2026-04-21 20:40 | 26.12780 | 50.98792 | 29838 ft | 468 kts | 275° |
| 2026-04-21 20:41 | 26.13472 | 50.91581 | 29842 ft | 469 kts | 275° |
| 2026-04-21 20:41 | 26.14162 | 50.84361 | 29837 ft | 470 kts | 275° |
| 2026-04-21 20:42 | 26.14851 | 50.77111 | 29855 ft | 471 kts | 275° |
| 2026-04-21 20:42 | 26.15534 | 50.69887 | 29849 ft | 468 kts | 275° |
| 2026-04-21 20:43 | 26.16211 | 50.62683 | 29841 ft | 467 kts | 275° |
| 2026-04-21 20:43 | 26.16880 | 50.55522 | 29822 ft | 470 kts | 275° |
| 2026-04-21 20:44 | 26.17554 | 50.48273 | 29825 ft | 472 kts | 275° |
| 2026-04-21 20:44 | 26.18226 | 50.41000 | 29821 ft | 473 kts | 275° |
| 2026-04-21 20:45 | 26.18897 | 50.33709 | 29828 ft | 474 kts | 275° |
| 2026-04-21 20:45 | 26.19568 | 50.26368 | 29829 ft | 474 kts | 275° |
| 2026-04-21 20:46 | 26.20233 | 50.19063 | 29829 ft | 474 kts | 275° |
| 2026-04-21 20:46 | 26.20891 | 50.11775 | 29829 ft | 473 kts | 275° |
| 2026-04-21 20:47 | 26.21542 | 50.04529 | 29831 ft | 473 kts | 275° |
| 2026-04-21 20:47 | 26.22193 | 49.97249 | 29829 ft | 473 kts | 275° |
| 2026-04-21 20:48 | 26.22841 | 49.89962 | 29833 ft | 472 kts | 275° |
| 2026-04-21 20:48 | 26.23483 | 49.82690 | 29845 ft | 472 kts | 275° |
| 2026-04-21 20:49 | 26.24122 | 49.75411 | 29843 ft | 472 kts | 274° |
| 2026-04-21 20:49 | 26.24758 | 49.68130 | 29855 ft | 473 kts | 274° |
| 2026-04-21 20:50 | 26.25392 | 49.60829 | 29837 ft | 473 kts | 274° |
| 2026-04-21 20:50 | 26.26020 | 49.53542 | 29835 ft | 472 kts | 274° |
| 2026-04-21 20:51 | 26.26645 | 49.46255 | 29834 ft | 472 kts | 274° |
| 2026-04-21 20:51 | 26.27266 | 49.38979 | 29842 ft | 472 kts | 274° |
| 2026-04-21 20:52 | 26.27884 | 49.31691 | 29850 ft | 472 kts | 274° |
| 2026-04-21 20:52 | 26.28497 | 49.24413 | 29855 ft | 471 kts | 274° |
| 2026-04-21 20:53 | 26.29106 | 49.17143 | 29858 ft | 471 kts | 274° |
| 2026-04-21 20:53 | 26.29203 | 49.09880 | 29871 ft | 468 kts | 265° |
| 2026-04-21 20:54 | 26.28484 | 49.03474 | 29870 ft | 467 kts | 258° |
| 2026-04-21 20:54 | 26.27324 | 48.97606 | 29872 ft | 466 kts | 258° |
| 2026-04-21 20:55 | 26.25901 | 48.90564 | 29876 ft | 466 kts | 258° |
| 2026-04-21 20:55 | 26.24497 | 48.83523 | 29878 ft | 466 kts | 258° |
| 2026-04-21 20:56 | 26.23104 | 48.76473 | 29883 ft | 466 kts | 258° |
| 2026-04-21 20:56 | 26.21711 | 48.69429 | 29887 ft | 466 kts | 258° |
| 2026-04-21 20:57 | 26.20311 | 48.62370 | 29882 ft | 467 kts | 258° |
| 2026-04-21 20:57 | 26.18908 | 48.55317 | 29897 ft | 467 kts | 258° |
| 2026-04-21 20:58 | 26.17498 | 48.48248 | 29896 ft | 467 kts | 258° |
| 2026-04-21 20:58 | 26.16085 | 48.41188 | 29904 ft | 467 kts | 258° |
| 2026-04-21 20:59 | 26.14670 | 48.34131 | 29895 ft | 466 kts | 258° |
| 2026-04-21 20:59 | 26.13255 | 48.27091 | 29902 ft | 466 kts | 258° |
| 2026-04-21 21:00 | 26.11578 | 48.20148 | 29902 ft | 466 kts | 251° |
| 2026-04-21 21:00 | 26.09166 | 48.14010 | 29908 ft | 468 kts | 246° |
| 2026-04-21 21:01 | 26.05840 | 48.07829 | 29915 ft | 470 kts | 240° |
| 2026-04-21 21:01 | 26.02245 | 48.01693 | 29906 ft | 471 kts | 240° |
| 2026-04-21 21:02 | 25.98697 | 47.95618 | 29896 ft | 458 kts | 240° |
| 2026-04-21 21:02 | 25.97026 | 47.92755 | 29894 ft | 437 kts | 240° |
| 2026-04-21 21:02 | 25.95392 | 47.89950 | 29893 ft | 418 kts | 240° |
| 2026-04-21 21:03 | 25.93868 | 47.87332 | 29882 ft | 401 kts | 241° |
| 2026-04-21 21:03 | 25.92368 | 47.84751 | 29893 ft | 384 kts | 241° |
| 2026-04-21 21:03 | 25.89516 | 47.79829 | 29674 ft | 386 kts | 241° |
| 2026-04-21 21:04 | 25.88057 | 47.77307 | 29195 ft | 388 kts | 240° |
| 2026-04-21 21:04 | 25.86600 | 47.74797 | 28671 ft | 385 kts | 240° |
| 2026-04-21 21:04 | 25.85150 | 47.72306 | 28184 ft | 381 kts | 240° |
| 2026-04-21 21:04 | 25.83718 | 47.69847 | 27688 ft | 378 kts | 240° |
| 2026-04-21 21:05 | 25.82298 | 47.67411 | 27201 ft | 375 kts | 240° |
| 2026-04-21 21:05 | 25.80885 | 47.64989 | 26714 ft | 372 kts | 240° |
| 2026-04-21 21:05 | 25.79487 | 47.62593 | 26243 ft | 369 kts | 240° |
| 2026-04-21 21:05 | 25.78098 | 47.60212 | 25766 ft | 367 kts | 240° |
| 2026-04-21 21:06 | 25.76711 | 47.57837 | 25286 ft | 365 kts | 240° |
| 2026-04-21 21:06 | 25.75334 | 47.55479 | 24809 ft | 364 kts | 240° |
| 2026-04-21 21:06 | 25.73961 | 47.53131 | 24345 ft | 363 kts | 240° |
| 2026-04-21 21:06 | 25.72589 | 47.50784 | 23865 ft | 362 kts | 240° |
| 2026-04-21 21:07 | 25.71223 | 47.48448 | 23367 ft | 361 kts | 240° |
| 2026-04-21 21:07 | 25.69854 | 47.46111 | 22835 ft | 360 kts | 239° |
| 2026-04-21 21:07 | 25.68494 | 47.43789 | 22367 ft | 358 kts | 239° |
| 2026-04-21 21:07 | 25.67144 | 47.41485 | 21896 ft | 355 kts | 239° |
| 2026-04-21 21:08 | 25.65803 | 47.39199 | 21436 ft | 353 kts | 239° |
| 2026-04-21 21:08 | 25.64468 | 47.36924 | 20969 ft | 351 kts | 239° |
| 2026-04-21 21:08 | 25.63143 | 47.34665 | 20525 ft | 349 kts | 239° |
| 2026-04-21 21:08 | 25.61822 | 47.32415 | 20073 ft | 347 kts | 239° |
| 2026-04-21 21:09 | 25.60509 | 47.30180 | 19618 ft | 346 kts | 239° |
| 2026-04-21 21:09 | 25.59198 | 47.27950 | 19169 ft | 344 kts | 239° |
| 2026-04-21 21:09 | 25.57894 | 47.25732 | 18706 ft | 343 kts | 239° |
| 2026-04-21 21:09 | 25.56591 | 47.23517 | 18255 ft | 342 kts | 239° |
| 2026-04-21 21:10 | 25.55295 | 47.21314 | 17735 ft | 341 kts | 239° |
| 2026-04-21 21:10 | 25.54002 | 47.19119 | 17272 ft | 339 kts | 239° |
| 2026-04-21 21:10 | 25.52715 | 47.16934 | 16808 ft | 337 kts | 239° |
| 2026-04-21 21:10 | 25.51441 | 47.14772 | 16360 ft | 334 kts | 238° |
| 2026-04-21 21:11 | 25.50176 | 47.12627 | 15906 ft | 332 kts | 238° |
| 2026-04-21 21:11 | 25.48921 | 47.10501 | 15478 ft | 329 kts | 238° |
| 2026-04-21 21:11 | 25.47670 | 47.08380 | 15032 ft | 327 kts | 238° |
| 2026-04-21 21:11 | 25.46429 | 47.06280 | 14609 ft | 325 kts | 238° |
| 2026-04-21 21:12 | 25.45197 | 47.04194 | 14184 ft | 323 kts | 238° |
| 2026-04-21 21:12 | 25.43975 | 47.02126 | 13801 ft | 320 kts | 238° |
| 2026-04-21 21:12 | 25.42761 | 47.00072 | 13360 ft | 318 kts | 238° |
| 2026-04-21 21:12 | 25.41558 | 46.98038 | 12919 ft | 315 kts | 238° |
| 2026-04-21 21:13 | 25.40361 | 46.96016 | 12494 ft | 313 kts | 238° |
| 2026-04-21 21:13 | 25.39172 | 46.94006 | 12075 ft | 311 kts | 238° |
| 2026-04-21 21:13 | 25.37993 | 46.92015 | 11654 ft | 309 kts | 238° |
| 2026-04-21 21:13 | 25.36817 | 46.90031 | 11242 ft | 308 kts | 237° |
| 2026-04-21 21:14 | 25.35646 | 46.88054 | 10839 ft | 307 kts | 237° |
| 2026-04-21 21:14 | 25.34479 | 46.86086 | 10534 ft | 303 kts | 237° |
| 2026-04-21 21:14 | 25.33372 | 46.84222 | 10340 ft | 276 kts | 237° |
| 2026-04-21 21:14 | 25.32384 | 46.82558 | 10226 ft | 250 kts | 237° |
| 2026-04-21 21:15 | 25.31469 | 46.81016 | 10119 ft | 236 kts | 237° |
| 2026-04-21 21:15 | 25.30544 | 46.79459 | 10062 ft | 250 kts | 237° |
| 2026-04-21 21:15 | 25.29562 | 46.77803 | 9753 ft | 263 kts | 237° |
| 2026-04-21 21:15 | 25.28550 | 46.76099 | 9399 ft | 266 kts | 237° |
| 2026-04-21 21:16 | 25.27533 | 46.74389 | 9046 ft | 266 kts | 236° |
| 2026-04-21 21:16 | 25.26519 | 46.72683 | 8695 ft | 265 kts | 236° |
| 2026-04-21 21:16 | 25.25506 | 46.70979 | 8346 ft | 265 kts | 236° |
| 2026-04-21 21:16 | 25.24492 | 46.69278 | 8002 ft | 266 kts | 236° |
| 2026-04-21 21:17 | 25.23475 | 46.67568 | 7648 ft | 267 kts | 236° |
| 2026-04-21 21:17 | 25.22467 | 46.65874 | 7463 ft | 258 kts | 236° |
| 2026-04-21 21:17 | 25.21526 | 46.64292 | 7289 ft | 235 kts | 236° |
| 2026-04-21 21:17 | 25.20676 | 46.62864 | 7156 ft | 212 kts | 235° |
| 2026-04-21 21:18 | 25.19894 | 46.61551 | 6900 ft | 199 kts | 235° |
| 2026-04-21 21:18 | 25.19132 | 46.60276 | 6690 ft | 202 kts | 235° |
| 2026-04-21 21:18 | 25.18274 | 46.59057 | 6389 ft | 200 kts | 215° |
| 2026-04-21 21:18 | 25.17004 | 46.58596 | 6194 ft | 194 kts | 178° |
| 2026-04-21 21:19 | 25.15699 | 46.59046 | 5919 ft | 201 kts | 161° |
| 2026-04-21 21:19 | 25.14403 | 46.59673 | 5668 ft | 206 kts | 157° |
| 2026-04-21 21:19 | 25.13126 | 46.60398 | 5393 ft | 206 kts | 153° |
| 2026-04-21 21:19 | 25.11904 | 46.61160 | 5155 ft | 198 kts | 151° |
| 2026-04-21 21:20 | 25.10725 | 46.61910 | 4879 ft | 192 kts | 149° |
| 2026-04-21 21:20 | 25.09594 | 46.62631 | 4643 ft | 183 kts | 148° |
| 2026-04-21 21:20 | 25.08518 | 46.63316 | 4417 ft | 174 kts | 148° |
| 2026-04-21 21:20 | 25.07487 | 46.63971 | 4184 ft | 169 kts | 147° |
| 2026-04-21 21:21 | 25.06465 | 46.64622 | 3976 ft | 171 kts | 147° |
| 2026-04-21 21:21 | 25.05449 | 46.65268 | 3752 ft | 166 kts | 146° |
| 2026-04-21 21:21 | 25.04475 | 46.65888 | 3523 ft | 159 kts | 146° |
| 2026-04-21 21:21 | 25.03529 | 46.66490 | 3350 ft | 153 kts | 145° |
| 2026-04-21 21:22 | 25.02633 | 46.67058 | 3154 ft | 143 kts | 144° |
| 2026-04-21 21:22 | 25.01784 | 46.67601 | 2989 ft | 143 kts | 144° |
| 2026-04-21 21:22 | 25.00912 | 46.68157 | 2785 ft | 146 kts | 146° |
| 2026-04-21 21:22 | 25.00048 | 46.68705 | 2600 ft | 138 kts | 148° |
| 2026-04-21 21:23 | 24.99231 | 46.69218 | 2421 ft | 135 kts | 149° |
| 2026-04-21 21:23 | 24.98410 | 46.69741 | 2261 ft | 137 kts | 149° |
| 2026-04-21 21:23 | 24.97593 | 46.70263 | 2078 ft | 135 kts | 149° |
| 2026-04-21 21:23 | 24.96831 | 46.70751 | 2042 ft | 115 kts | 150° |
| 2026-04-21 21:24 | 24.96439 | 46.70996 | 2038 ft | 6 kts | 153° |
| 2026-04-21 21:24 | 24.96405 | 46.71015 | 2040 ft | 5 kts | 153° |